Time;durP1;ratioP1;P1;durP2;ratioP2;P2;SDS_P1;SDS_P2;PMS_P1;PMS_P2;Temp;Humidity;BMP_temperature;BMP_pressure;BME280_temperature;BME280_humidity;BME280_pressure;Samples;Min_cycle;Max_cycle;Signal;HPM_P1;HPM_P2
2023/05/11 00:00:40;;;;;;;1.27;0.60;;;15.40;99.90;;;;;;7389443;19;20141;-75
2023/05/11 00:03:06;;;;;;;3.13;0.70;;;15.40;99.90;;;;;;7389859;19;20153;-75
2023/05/11 00:05:32;;;;;;;0.95;0.65;;;15.50;99.90;;;;;;7392337;19;20157;-75
2023/05/11 00:07:57;;;;;;;1.30;0.50;;;15.50;99.90;;;;;;7390475;19;20146;-74
2023/05/11 00:10:23;;;;;;;3.35;0.60;;;15.50;99.90;;;;;;7386803;19;20139;-75
2023/05/11 00:12:49;;;;;;;4.15;0.68;;;15.50;99.90;;;;;;7389711;19;20130;-75
2023/05/11 00:15:14;;;;;;;0.80;0.60;;;15.30;99.90;;;;;;7384500;19;20150;-74
2023/05/11 00:17:40;;;;;;;3.00;0.70;;;15.40;99.90;;;;;;7373871;19;20635;-75
2023/05/11 00:20:06;;;;;;;1.05;0.63;;;15.40;99.90;;;;;;7384906;19;20560;-76
2023/05/11 00:22:32;;;;;;;0.90;0.60;;;15.50;99.90;;;;;;7372215;19;20190;-74
2023/05/11 00:24:58;;;;;;;1.08;0.70;;;15.40;99.90;;;;;;7376010;19;20155;-76
2023/05/11 00:27:23;;;;;;;0.88;0.60;;;15.50;99.90;;;;;;7390015;19;20179;-75
2023/05/11 00:29:49;;;;;;;3.53;0.90;;;15.50;99.90;;;;;;7388115;19;20611;-75
2023/05/11 00:32:15;;;;;;;1.02;0.50;;;15.40;99.90;;;;;;7377440;19;20127;-75
2023/05/11 00:34:41;;;;;;;0.85;0.65;;;15.40;99.90;;;;;;7384074;19;20140;-75
2023/05/11 00:37:07;;;;;;;0.45;0.45;;;15.50;99.90;;;;;;7369225;19;20126;-75
2023/05/11 00:39:38;;;;;;;1.50;0.60;;;15.50;99.90;;;;;;7374971;19;20158;-75
2023/05/11 00:42:04;;;;;;;1.02;0.50;;;15.50;99.90;;;;;;7388968;19;20162;-74
2023/05/11 00:44:30;;;;;;;0.88;0.43;;;15.50;99.90;;;;;;7373987;19;20131;-74
2023/05/11 00:46:57;;;;;;;3.20;0.70;;;15.50;99.90;;;;;;7375089;19;20610;-74
2023/05/11 00:49:22;;;;;;;1.85;0.90;;;15.40;99.90;;;;;;7389355;19;20146;-75
2023/05/11 00:51:50;;;;;;;0.80;0.60;;;15.40;99.90;;;;;;7388740;19;20173;-75
2023/05/11 00:54:17;;;;;;;0.45;0.45;;;15.40;99.90;;;;;;7389846;19;20172;-75
2023/05/11 00:56:42;;;;;;;0.50;0.50;;;15.20;99.90;;;;;;7385067;19;20466;-75
2023/05/11 00:59:08;;;;;;;1.35;0.90;;;15.30;99.90;;;;;;7385497;19;20195;-75
2023/05/11 01:01:34;;;;;;;0.70;0.65;;;15.30;99.90;;;;;;7369175;19;20131;-75
2023/05/11 01:04:02;;;;;;;1.90;0.70;;;15.20;99.90;;;;;;7383997;19;20597;-75
2023/05/11 01:06:43;;;;;;;1.13;0.65;;;15.30;99.90;;;;;;7386688;19;20142;-75
2023/05/11 01:09:19;;;;;;;3.35;0.70;;;15.30;99.90;;;;;;7387356;19;20166;-75
2023/05/11 01:11:55;;;;;;;1.08;0.50;;;15.40;99.90;;;;;;7380504;19;20149;-75
2023/05/11 01:14:38;;;;;;;0.77;0.60;;;15.30;99.90;;;;;;7386766;19;20154;-74
2023/05/11 01:17:10;;;;;;;0.93;0.63;;;15.40;99.90;;;;;;7369253;19;20142;-74
2023/05/11 01:19:42;;;;;;;2.53;0.50;;;15.40;99.90;;;;;;7369627;19;20182;-76
2023/05/11 01:22:54;;;;;;;1.00;0.60;;;15.30;99.90;;;;;;7370285;19;20610;-74
2023/05/11 01:25:35;;;;;;;1.50;0.60;;;15.30;99.90;;;;;;7388285;19;20155;-74
2023/05/11 01:28:30;;;;;;;2.60;0.77;;;15.30;99.90;;;;;;7387660;19;20154;-75
2023/05/11 01:31:14;;;;;;;1.33;0.63;;;15.30;99.90;;;;;;7389851;19;20151;-75
2023/05/11 01:33:48;;;;;;;2.13;0.70;;;15.30;99.90;;;;;;7386946;19;20134;-74
2023/05/11 01:36:15;;;;;;;2.65;0.50;;;15.30;99.90;;;;;;7374225;19;20165;-74
2023/05/11 01:38:46;;;;;;;2.15;0.75;;;15.30;99.90;;;;;;7376287;19;20163;-75
2023/05/11 01:41:18;;;;;;;0.80;0.50;;;15.30;99.90;;;;;;7375411;19;20570;-74
2023/05/11 01:43:50;;;;;;;0.45;0.45;;;15.30;99.90;;;;;;7384367;19;20147;-73
2023/05/11 01:46:18;;;;;;;0.40;0.32;;;15.20;99.90;;;;;;7387291;19;20145;-74
2023/05/11 01:48:50;;;;;;;0.47;0.38;;;15.20;99.90;;;;;;7383199;19;20182;-74
2023/05/11 01:51:17;;;;;;;0.50;0.30;;;15.30;99.90;;;;;;7386468;19;20137;-74
2023/05/11 01:53:44;;;;;;;0.40;0.40;;;15.30;99.90;;;;;;7372326;19;20131;-75
2023/05/11 01:56:10;;;;;;;0.20;0.20;;;15.30;99.90;;;;;;7382358;19;20139;-75
2023/05/11 01:58:39;;;;;;;0.80;0.50;;;15.20;99.90;;;;;;7368670;19;20583;-74
2023/05/11 02:01:06;;;;;;;1.10;0.50;;;15.20;99.90;;;;;;7370710;19;20194;-74
2023/05/11 02:03:35;;;;;;;0.57;0.43;;;15.20;99.90;;;;;;7365190;19;20146;-74
2023/05/11 02:06:03;;;;;;;2.83;0.60;;;15.20;99.90;;;;;;7364846;19;20143;-74
2023/05/11 02:08:30;;;;;;;0.98;0.40;;;15.30;99.90;;;;;;7386988;19;20606;-75
2023/05/11 02:10:57;;;;;;;2.15;0.45;;;15.30;99.90;;;;;;7380137;19;20154;-74
2023/05/11 02:13:25;;;;;;;0.40;0.40;;;15.20;99.90;;;;;;7367162;19;20533;-73
2023/05/11 02:15:54;;;;;;;1.50;0.80;;;15.20;99.90;;;;;;7378280;19;20253;-75
2023/05/11 02:18:20;;;;;;;1.00;0.50;;;15.20;99.90;;;;;;7386093;19;20184;-75
2023/05/11 02:20:47;;;;;;;0.47;0.40;;;15.30;99.90;;;;;;7387733;19;20139;-74
2023/05/11 02:23:13;;;;;;;0.35;0.35;;;15.30;99.90;;;;;;7375094;19;20135;-74
2023/05/11 02:25:40;;;;;;;0.70;0.50;;;15.30;99.90;;;;;;7366821;19;20151;-74
2023/05/11 02:28:07;;;;;;;0.40;0.40;;;15.20;99.90;;;;;;7380650;19;20149;-74
2023/05/11 02:30:43;;;;;;;0.40;0.40;;;15.20;99.90;;;;;;7370813;19;20142;-74
2023/05/11 02:33:16;;;;;;;0.95;0.50;;;15.10;99.90;;;;;;7387041;19;20130;-74
2023/05/11 02:35:43;;;;;;;0.40;0.40;;;15.10;99.90;;;;;;7388090;19;20137;-74
2023/05/11 02:38:11;;;;;;;2.50;0.60;;;15.10;99.90;;;;;;7384905;19;20138;-76
2023/05/11 02:40:49;;;;;;;0.60;0.50;;;15.10;99.90;;;;;;7376350;19;20134;-73
2023/05/11 02:43:22;;;;;;;0.30;0.30;;;15.10;99.90;;;;;;7381615;19;20147;-75
2023/05/11 02:45:51;;;;;;;0.98;0.50;;;15.00;99.90;;;;;;7387409;19;20563;-75
2023/05/11 02:48:41;;;;;;;1.00;0.40;;;15.10;99.90;;;;;;7386154;19;20460;-73
2023/05/11 02:51:11;;;;;;;1.48;0.32;;;15.30;99.90;;;;;;7380639;19;20764;-75
2023/05/11 02:53:40;;;;;;;0.85;0.40;;;15.20;99.90;;;;;;7365244;19;20484;-74
2023/05/11 02:56:07;;;;;;;0.40;0.40;;;15.10;99.90;;;;;;7385766;19;20202;-75
2023/05/11 02:58:33;;;;;;;0.70;0.40;;;15.10;99.90;;;;;;7383471;19;20547;-75
2023/05/11 03:00:59;;;;;;;0.70;0.50;;;15.10;99.90;;;;;;7379580;19;20143;-76
2023/05/11 03:03:26;;;;;;;0.50;0.50;;;15.10;99.90;;;;;;7369607;19;20135;-74
2023/05/11 03:05:52;;;;;;;0.55;0.55;;;15.10;99.90;;;;;;7364243;19;20130;-75
2023/05/11 03:08:18;;;;;;;0.55;0.55;;;15.20;99.90;;;;;;7367342;19;20153;-76
2023/05/11 03:10:45;;;;;;;0.40;0.40;;;15.20;99.90;;;;;;7367962;19;20621;-75
2023/05/11 03:13:11;;;;;;;0.50;0.50;;;15.10;99.90;;;;;;7377231;19;20864;-74
2023/05/11 03:15:38;;;;;;;0.77;0.35;;;15.10;99.90;;;;;;7378566;19;20286;-75
2023/05/11 03:18:07;;;;;;;0.65;0.55;;;15.10;99.90;;;;;;7382494;19;20131;-75
2023/05/11 03:20:36;;;;;;;0.40;0.40;;;15.10;99.90;;;;;;7376391;19;20141;-75
2023/05/11 03:23:05;;;;;;;0.55;0.50;;;15.10;99.90;;;;;;7384272;19;20186;-75
2023/05/11 03:25:31;;;;;;;1.00;0.60;;;15.10;99.90;;;;;;7373698;19;20150;-75
2023/05/11 03:27:58;;;;;;;0.82;0.50;;;15.10;99.90;;;;;;7377780;19;20131;-75
2023/05/11 03:30:25;;;;;;;0.65;0.50;;;15.10;99.90;;;;;;7371511;19;20201;-74
2023/05/11 03:32:52;;;;;;;0.68;0.60;;;15.10;99.90;;;;;;7384286;19;20165;-74
2023/05/11 03:35:18;;;;;;;0.65;0.60;;;15.10;99.90;;;;;;7366546;19;21675;-75
2023/05/11 03:37:45;;;;;;;1.83;0.40;;;15.00;99.90;;;;;;7382644;19;20135;-74
2023/05/11 03:40:14;;;;;;;0.98;0.70;;;15.10;99.90;;;;;;7386720;19;20487;-75
2023/05/11 03:42:42;;;;;;;0.45;0.45;;;15.10;99.90;;;;;;7384255;19;20606;-75
2023/05/11 03:45:11;;;;;;;0.60;0.50;;;15.10;99.90;;;;;;7381303;19;20495;-74
2023/05/11 03:47:39;;;;;;;3.38;0.50;;;15.00;99.90;;;;;;7383031;19;20137;-75
2023/05/11 03:50:06;;;;;;;0.90;0.50;;;14.80;99.90;;;;;;7382357;19;20154;-75
2023/05/11 03:52:33;;;;;;;0.57;0.55;;;14.90;99.90;;;;;;7385683;19;20139;-74
2023/05/11 03:54:59;;;;;;;0.82;0.57;;;14.90;99.90;;;;;;7381651;19;20138;-76
2023/05/11 03:57:25;;;;;;;1.77;0.80;;;14.90;99.90;;;;;;7385667;19;20146;-74
2023/05/11 03:59:51;;;;;;;0.60;0.60;;;15.00;99.90;;;;;;7374074;19;20130;-74
2023/05/11 04:02:17;;;;;;;2.05;0.63;;;14.70;99.90;;;;;;7367581;19;20131;-74
2023/05/11 04:04:42;;;;;;;0.93;0.65;;;14.80;99.90;;;;;;7384563;19;20139;-75
2023/05/11 04:07:08;;;;;;;0.65;0.52;;;14.70;99.90;;;;;;7383609;19;20155;-76
2023/05/11 04:09:34;;;;;;;1.38;0.55;;;14.70;99.90;;;;;;7383502;19;20159;-75
2023/05/11 04:12:00;;;;;;;2.92;0.73;;;14.70;99.90;;;;;;7383260;19;21720;-75
2023/05/11 04:14:25;;;;;;;0.57;0.50;;;14.80;99.90;;;;;;7392587;19;20130;-75
2023/05/11 04:16:51;;;;;;;1.05;0.60;;;14.90;99.90;;;;;;7389808;19;20555;-75
2023/05/11 04:19:17;;;;;;;0.57;0.57;;;15.00;99.90;;;;;;7391757;19;20485;-74
2023/05/11 04:21:43;;;;;;;0.80;0.60;;;14.90;99.90;;;;;;7390993;19;20681;-75
2023/05/11 04:24:08;;;;;;;1.10;0.50;;;14.90;99.90;;;;;;7375467;19;20151;-74
2023/05/11 04:26:34;;;;;;;0.90;0.63;;;14.90;99.90;;;;;;7370124;19;20155;-74
2023/05/11 04:29:00;;;;;;;0.98;0.50;;;15.20;99.90;;;;;;7386004;19;20135;-74
2023/05/11 04:31:25;;;;;;;3.70;0.60;;;14.90;99.90;;;;;;7382719;19;20574;-75
2023/05/11 04:33:51;;;;;;;2.20;0.77;;;15.00;99.90;;;;;;7371989;19;20134;-76
2023/05/11 04:36:17;;;;;;;1.00;0.90;;;14.90;99.90;;;;;;7379405;19;20173;-74
2023/05/11 04:38:43;;;;;;;0.90;0.73;;;15.00;99.90;;;;;;7391868;19;20142;-73
2023/05/11 04:41:08;;;;;;;2.15;0.98;;;15.00;99.90;;;;;;7373026;19;20194;-74
2023/05/11 04:43:34;;;;;;;1.20;0.60;;;14.90;99.90;;;;;;7370930;19;20145;-75
2023/05/11 04:46:00;;;;;;;1.65;0.70;;;14.80;99.90;;;;;;7369164;19;20154;-75
2023/05/11 04:48:26;;;;;;;3.17;1.38;;;14.90;99.90;;;;;;7387400;19;20143;-75
2023/05/11 04:50:55;;;;;;;0.77;0.70;;;14.90;99.90;;;;;;7390318;19;20498;-74
2023/05/11 04:53:21;;;;;;;1.15;0.70;;;14.80;99.90;;;;;;7377275;19;20156;-74
2023/05/11 04:55:47;;;;;;;0.70;0.70;;;14.70;99.90;;;;;;7379897;19;20134;-75
2023/05/11 04:58:13;;;;;;;1.90;0.65;;;14.90;99.90;;;;;;7385286;19;20175;-75
2023/05/11 05:00:38;;;;;;;0.80;0.57;;;14.90;99.90;;;;;;7391955;19;20609;-75
2023/05/11 05:03:04;;;;;;;1.25;0.98;;;14.90;99.90;;;;;;7376229;19;20141;-75
2023/05/11 05:05:30;;;;;;;2.63;0.75;;;14.90;99.90;;;;;;7369556;19;20206;-74
2023/05/11 05:07:56;;;;;;;0.80;0.80;;;14.90;99.90;;;;;;7367419;19;20134;-75
2023/05/11 05:10:22;;;;;;;2.05;1.52;;;14.90;99.90;;;;;;7387367;19;20157;-76
2023/05/11 05:12:47;;;;;;;4.15;2.55;;;14.90;99.90;;;;;;7381647;19;20229;-74
2023/05/11 05:15:13;;;;;;;1.95;1.10;;;14.80;99.90;;;;;;7383987;19;20574;-75
2023/05/11 05:17:39;;;;;;;0.85;0.80;;;14.80;99.90;;;;;;7391259;19;20135;-76
2023/05/11 05:20:06;;;;;;;0.98;0.82;;;14.80;99.90;;;;;;7365776;19;20210;-75
2023/05/11 05:22:33;;;;;;;2.83;0.88;;;14.80;99.90;;;;;;7368122;19;20170;-75
2023/05/11 05:24:59;;;;;;;0.80;0.80;;;14.80;99.90;;;;;;7369780;19;20135;-75
2023/05/11 05:27:25;;;;;;;4.00;2.20;;;14.80;99.90;;;;;;7369870;19;20141;-74
2023/05/11 05:29:51;;;;;;;2.25;1.30;;;14.80;99.90;;;;;;7372983;19;20154;-74
2023/05/11 05:32:16;;;;;;;2.03;1.33;;;14.80;99.90;;;;;;7382207;19;20905;-74
2023/05/11 05:34:42;;;;;;;1.67;0.82;;;14.90;99.90;;;;;;7379594;19;20160;-74
2023/05/11 05:37:08;;;;;;;0.98;0.73;;;14.90;99.90;;;;;;7383418;19;20145;-76
2023/05/11 05:39:34;;;;;;;2.03;0.60;;;15.00;99.90;;;;;;7385518;19;20553;-74
2023/05/11 05:42:01;;;;;;;1.23;0.93;;;14.90;99.90;;;;;;7388246;19;20160;-75
2023/05/11 05:44:27;;;;;;;1.58;1.02;;;14.90;99.90;;;;;;7374214;19;20182;-74
2023/05/11 05:46:53;;;;;;;0.85;0.70;;;14.80;99.90;;;;;;7382543;19;20202;-73
2023/05/11 05:49:19;;;;;;;1.20;0.80;;;14.80;99.90;;;;;;7385245;19;20134;-74
2023/05/11 05:51:45;;;;;;;1.23;0.70;;;14.90;99.90;;;;;;7381648;19;20138;-74
2023/05/11 05:54:12;;;;;;;0.82;0.70;;;14.90;99.90;;;;;;7386469;19;20162;-74
2023/05/11 05:56:39;;;;;;;1.15;0.90;;;14.90;99.90;;;;;;7386388;19;20158;-74
2023/05/11 05:59:07;;;;;;;1.27;0.70;;;15.00;99.90;;;;;;7375245;19;20494;-74
2023/05/11 06:01:34;;;;;;;0.85;0.80;;;15.00;99.90;;;;;;7369296;19;20218;-74
2023/05/11 06:04:00;;;;;;;5.05;2.80;;;15.00;99.90;;;;;;7378323;19;20142;-74
2023/05/11 06:06:26;;;;;;;3.30;1.20;;;15.00;99.90;;;;;;7375119;19;20137;-74
2023/05/11 06:08:52;;;;;;;2.08;1.15;;;15.00;99.90;;;;;;7384621;19;20226;-74
2023/05/11 06:11:17;;;;;;;1.05;0.95;;;15.10;99.90;;;;;;7377868;19;20147;-72
2023/05/11 06:13:43;;;;;;;1.38;1.10;;;15.10;99.90;;;;;;7382155;19;20717;-74
2023/05/11 06:16:12;;;;;;;1.85;0.80;;;15.20;99.90;;;;;;7387831;19;20188;-73
2023/05/11 06:18:38;;;;;;;1.88;0.80;;;15.10;99.90;;;;;;7382570;19;20269;-75
2023/05/11 06:21:05;;;;;;;2.28;0.77;;;15.20;99.90;;;;;;7366561;19;20158;-74
2023/05/11 06:23:32;;;;;;;2.22;0.73;;;15.20;99.90;;;;;;7378031;19;20174;-75
2023/05/11 06:25:58;;;;;;;1.85;0.93;;;15.00;99.90;;;;;;7379563;19;20758;-75
2023/05/11 06:28:24;;;;;;;0.63;0.60;;;15.10;99.90;;;;;;7364549;19;20181;-74
2023/05/11 06:30:50;;;;;;;1.55;0.77;;;15.10;99.90;;;;;;7366805;19;20126;-74
2023/05/11 06:33:15;;;;;;;1.15;0.85;;;15.00;99.90;;;;;;7382274;19;20739;-74
2023/05/11 06:35:41;;;;;;;2.50;1.42;;;15.00;99.90;;;;;;7368130;19;20139;-74
2023/05/11 06:38:07;;;;;;;1.55;1.05;;;15.00;99.90;;;;;;7375659;19;20126;-74
2023/05/11 06:40:32;;;;;;;1.23;0.90;;;15.10;99.90;;;;;;7386297;19;20181;-74
2023/05/11 06:42:58;;;;;;;3.13;0.98;;;15.20;99.90;;;;;;7366871;19;20602;-75
2023/05/11 06:45:24;;;;;;;2.40;0.90;;;15.00;99.90;;;;;;7366872;19;20662;-76
2023/05/11 06:47:50;;;;;;;2.40;0.80;;;15.00;99.90;;;;;;7372721;19;20150;-79
2023/05/11 06:50:17;;;;;;;1.67;0.80;;;15.10;99.90;;;;;;7386463;19;20149;-75
2023/05/11 06:52:42;;;;;;;1.17;0.85;;;15.10;99.90;;;;;;7387187;19;20146;-79
2023/05/11 06:55:13;;;;;;;1.40;0.90;;;15.10;99.90;;;;;;7385853;19;20181;-79
2023/05/11 06:57:39;;;;;;;2.20;0.90;;;15.10;99.90;;;;;;7382366;19;20253;-75
2023/05/11 07:00:05;;;;;;;2.70;1.10;;;15.10;99.90;;;;;;7373916;19;20583;-76
2023/05/11 07:02:31;;;;;;;1.27;0.95;;;15.10;99.90;;;;;;7381982;19;20135;-77
2023/05/11 07:04:57;;;;;;;3.05;1.70;;;15.10;99.90;;;;;;7377784;19;20139;-77
2023/05/11 07:07:24;;;;;;;1.27;1.13;;;15.20;99.90;;;;;;7380081;19;20602;-76
2023/05/11 07:09:50;;;;;;;0.80;0.80;;;15.20;99.90;;;;;;7384417;19;20146;-78
2023/05/11 07:12:17;;;;;;;1.13;0.98;;;15.20;99.90;;;;;;7379278;19;20140;-77
2023/05/11 07:14:43;;;;;;;7.95;4.93;;;15.10;99.90;;;;;;7385515;19;20154;-77
2023/05/11 07:17:09;;;;;;;2.38;1.50;;;15.10;99.90;;;;;;7373348;19;20139;-77
2023/05/11 07:19:35;;;;;;;2.72;1.20;;;15.10;99.90;;;;;;7375768;19;20269;-77
2023/05/11 07:22:01;;;;;;;2.53;1.67;;;15.10;99.90;;;;;;7380268;19;20150;-77
2023/05/11 07:24:26;;;;;;;1.80;0.90;;;14.90;99.90;;;;;;7378542;19;20134;-75
2023/05/11 07:26:52;;;;;;;1.83;1.25;;;15.00;99.90;;;;;;7358057;19;20169;-76
2023/05/11 07:29:18;;;;;;;2.33;0.90;;;15.10;99.90;;;;;;7383686;19;20747;-76
2023/05/11 07:31:44;;;;;;;4.15;1.25;;;15.10;99.90;;;;;;7375610;19;20147;-77
2023/05/11 07:34:10;;;;;;;1.20;1.00;;;15.00;99.90;;;;;;7363768;19;20143;-76
2023/05/11 07:36:35;;;;;;;1.35;1.02;;;15.00;99.90;;;;;;7368389;19;20142;-76
2023/05/11 07:39:01;;;;;;;1.20;0.90;;;15.10;99.90;;;;;;7380144;19;20146;-76
2023/05/11 07:41:28;;;;;;;1.13;1.00;;;15.10;99.90;;;;;;7367255;19;20716;-76
2023/05/11 07:43:54;;;;;;;1.27;1.13;;;15.10;99.90;;;;;;7378061;19;20318;-76
2023/05/11 07:46:20;;;;;;;5.30;1.30;;;15.10;99.90;;;;;;7367816;19;20138;-77
2023/05/11 07:48:46;;;;;;;5.43;3.10;;;15.10;99.90;;;;;;7383751;19;21231;-77
2023/05/11 07:51:11;;;;;;;1.48;1.00;;;15.00;99.90;;;;;;7388207;19;20174;-77
2023/05/11 07:53:37;;;;;;;2.92;1.30;;;15.10;99.90;;;;;;7379236;19;20248;-78
2023/05/11 07:56:04;;;;;;;1.63;1.20;;;15.10;99.90;;;;;;7390049;19;20169;-79
2023/05/11 07:58:29;;;;;;;1.33;1.10;;;14.50;99.90;;;;;;7391469;19;20238;-79
2023/05/11 08:00:56;;;;;;;1.00;0.80;;;14.60;99.90;;;;;;7375312;19;20158;-79
2023/05/11 08:03:22;;;;;;;2.20;0.90;;;14.50;99.90;;;;;;7384216;19;20130;-80
2023/05/11 08:05:48;;;;;;;1.05;0.80;;;15.00;99.90;;;;;;7365773;19;20137;-78
2023/05/11 08:08:14;;;;;;;1.63;1.15;;;15.00;99.90;;;;;;7388866;19;20142;-77
2023/05/11 08:10:41;;;;;;;2.90;1.00;;;15.00;99.90;;;;;;7391101;19;20142;-78
2023/05/11 08:13:09;;;;;;;1.40;0.88;;;15.10;99.90;;;;;;7382230;19;20481;-77
2023/05/11 08:15:36;;;;;;;1.08;0.90;;;15.10;99.90;;;;;;7383383;19;20533;-78
2023/05/11 08:18:01;;;;;;;3.92;1.20;;;15.10;99.90;;;;;;7388368;19;20147;-77
2023/05/11 08:20:27;;;;;;;1.10;0.80;;;15.10;99.90;;;;;;7387481;19;20645;-80
2023/05/11 08:22:53;;;;;;;2.00;1.10;;;15.10;99.90;;;;;;7368678;19;20134;-77
2023/05/11 08:25:19;;;;;;;1.05;0.95;;;15.10;99.90;;;;;;7371156;19;20175;-76
2023/05/11 08:27:44;;;;;;;2.05;1.50;;;15.20;99.90;;;;;;7378804;19;20147;-75
2023/05/11 08:30:12;;;;;;;2.33;1.42;;;15.30;99.90;;;;;;7378405;19;20131;-75
2023/05/11 08:32:38;;;;;;;1.48;1.15;;;15.30;99.90;;;;;;7378697;19;20134;-77
2023/05/11 08:35:05;;;;;;;1.85;1.67;;;15.30;99.90;;;;;;7390903;19;20168;-75
2023/05/11 08:37:30;;;;;;;3.80;1.27;;;15.00;99.90;;;;;;7377024;19;20153;-77
2023/05/11 08:39:56;;;;;;;1.88;1.30;;;15.00;99.90;;;;;;7388177;19;20221;-76
2023/05/11 08:42:24;;;;;;;4.60;2.97;;;15.20;99.90;;;;;;7373291;19;20138;-75
2023/05/11 08:44:58;;;;;;;1.40;1.30;;;15.00;99.90;;;;;;7377984;19;20177;-76
2023/05/11 08:47:24;;;;;;;2.38;1.30;;;15.20;99.90;;;;;;7385501;19;20487;-76
2023/05/11 08:49:51;;;;;;;1.23;1.13;;;15.20;99.90;;;;;;7377483;19;20138;-76
2023/05/11 08:52:18;;;;;;;1.65;1.35;;;15.30;99.90;;;;;;7372581;19;20127;-75
2023/05/11 08:54:47;;;;;;;2.05;1.42;;;15.30;99.90;;;;;;7387373;19;20142;-75
2023/05/11 08:57:13;;;;;;;1.73;1.33;;;15.30;99.90;;;;;;7386228;19;20126;-75
2023/05/11 08:59:41;;;;;;;5.22;1.80;;;15.30;99.90;;;;;;7387660;19;20131;-75
2023/05/11 09:02:13;;;;;;;2.45;1.63;;;15.20;99.90;;;;;;7388071;19;20186;-74
2023/05/11 09:04:39;;;;;;;1.85;1.65;;;15.10;99.90;;;;;;7386831;19;20146;-75
2023/05/11 09:07:05;;;;;;;1.70;1.42;;;15.20;99.90;;;;;;7386703;19;20147;-75
2023/05/11 09:09:31;;;;;;;4.03;3.00;;;15.20;99.90;;;;;;7385693;19;20179;-75
2023/05/11 09:11:58;;;;;;;2.85;2.40;;;15.20;99.90;;;;;;7386006;19;20142;-75
2023/05/11 09:14:25;;;;;;;2.67;2.10;;;15.10;99.90;;;;;;7375810;19;20170;-75
2023/05/11 09:16:51;;;;;;;2.85;2.08;;;15.20;99.90;;;;;;7375797;19;20154;-76
2023/05/11 09:19:16;;;;;;;2.97;1.75;;;15.20;99.90;;;;;;7371243;19;20158;-76
2023/05/11 09:21:42;;;;;;;1.45;1.33;;;15.10;99.90;;;;;;7378443;19;20688;-76
2023/05/11 09:24:12;;;;;;;2.20;1.70;;;15.20;99.90;;;;;;7369817;19;20204;-75
2023/05/11 09:26:38;;;;;;;2.05;1.48;;;15.10;99.90;;;;;;7383736;19;20147;-76
2023/05/11 09:29:03;;;;;;;1.35;1.25;;;15.30;99.90;;;;;;7381956;19;20662;-76
2023/05/11 09:31:46;;;;;;;3.08;1.27;;;15.30;99.90;;;;;;7383715;19;20130;-76
2023/05/11 09:34:13;;;;;;;1.27;1.00;;;15.30;99.90;;;;;;7383616;19;20131;-76
2023/05/11 09:36:44;;;;;;;2.78;1.55;;;15.40;99.90;;;;;;7384619;19;20134;-79
2023/05/11 09:39:12;;;;;;;2.17;1.45;;;15.40;99.90;;;;;;7383778;19;20172;-74
2023/05/11 09:41:38;;;;;;;3.28;1.58;;;15.40;99.90;;;;;;7386937;19;20609;-75
2023/05/11 09:44:14;;;;;;;1.63;1.40;;;15.40;99.90;;;;;;7385958;19;20131;-79
2023/05/11 09:46:42;;;;;;;2.80;1.92;;;15.30;99.90;;;;;;7366253;19;20146;-81
2023/05/11 09:49:09;;;;;;;2.78;1.85;;;15.30;99.90;;;;;;7382961;19;20541;-79
2023/05/11 09:51:37;;;;;;;2.15;1.65;;;15.40;99.90;;;;;;7385298;19;20135;-81
2023/05/11 09:54:30;;;;;;;2.97;1.33;;;15.50;99.90;;;;;;7395463;19;20618;-79
2023/05/11 09:56:59;;;;;;;1.33;1.23;;;15.50;99.90;;;;;;7376183;19;20150;-80
2023/05/11 09:59:39;;;;;;;1.60;1.40;;;15.50;99.90;;;;;;7388105;19;20130;-82
2023/05/11 10:02:24;;;;;;;3.80;1.60;;;15.50;99.90;;;;;;7389226;19;20134;-80
2023/05/11 10:04:53;;;;;;;2.03;1.50;;;15.50;99.90;;;;;;7389499;19;20188;-82
2023/05/11 10:07:34;;;;;;;3.28;1.70;;;15.40;99.90;;;;;;7384490;19;21448;-82
2023/05/11 10:10:02;;;;;;;1.70;1.42;;;15.50;99.90;;;;;;7389166;19;20218;-79
2023/05/11 10:12:31;;;;;;;1.80;1.50;;;15.40;99.90;;;;;;7383159;19;20135;-80
2023/05/11 10:15:03;;;;;;;2.15;1.38;;;15.50;99.90;;;;;;7369287;19;20158;-79
2023/05/11 10:17:30;;;;;;;2.45;1.63;;;15.50;99.90;;;;;;7387052;19;20174;-81
2023/05/11 10:20:00;;;;;;;2.80;1.70;;;15.70;99.90;;;;;;7384933;19;20226;-80
2023/05/11 10:22:29;;;;;;;1.52;1.30;;;15.60;99.90;;;;;;7382751;19;20150;-82
2023/05/11 10:24:57;;;;;;;1.73;1.30;;;15.60;99.90;;;;;;7391575;19;20145;-80
2023/05/11 10:27:26;;;;;;;2.28;1.45;;;15.40;99.90;;;;;;7389425;19;20512;-80
2023/05/11 10:29:54;;;;;;;0.95;0.90;;;15.30;99.90;;;;;;7378275;19;20154;-79
2023/05/11 10:32:26;;;;;;;1.95;1.00;;;15.30;99.90;;;;;;7370742;19;20145;-79
2023/05/11 10:34:52;;;;;;;1.55;1.23;;;15.30;99.90;;;;;;7385566;19;20143;-78
2023/05/11 10:37:19;;;;;;;1.20;1.10;;;15.30;99.90;;;;;;7390842;19;20579;-80
2023/05/11 10:39:45;;;;;;;1.48;1.20;;;15.30;99.90;;;;;;7385746;19;20154;-80
2023/05/11 10:42:38;;;;;;;1.65;1.40;;;15.30;99.90;;;;;;7381239;19;20747;-81
2023/05/11 10:45:35;;;;;;;1.60;1.50;;;15.50;99.90;;;;;;7383237;19;20520;-80
2023/05/11 10:48:22;;;;;;;2.53;1.70;;;15.40;99.90;;;;;;7384235;19;20134;-81
2023/05/11 10:51:06;;;;;;;2.00;1.65;;;15.40;99.90;;;;;;7374366;19;20158;-79
2023/05/11 10:53:57;;;;;;;1.83;1.60;;;15.40;99.90;;;;;;7382429;19;20142;-79
2023/05/11 10:56:44;;;;;;;2.42;1.30;;;15.50;99.90;;;;;;7375172;19;20610;-78
2023/05/11 10:59:43;;;;;;;1.30;1.00;;;15.40;99.90;;;;;;7395751;19;20135;-79
2023/05/11 11:02:10;;;;;;;3.63;2.25;;;15.40;99.90;;;;;;7383703;19;20191;-81
2023/05/11 11:04:44;;;;;;;1.92;1.38;;;15.50;99.90;;;;;;7385919;19;20167;-79
2023/05/11 11:07:16;;;;;;;2.00;1.42;;;15.40;99.90;;;;;;7378540;19;20149;-79
2023/05/11 11:10:08;;;;;;;3.20;2.58;;;15.50;99.90;;;;;;7382239;19;20141;-79
2023/05/11 11:12:34;;;;;;;2.25;1.70;;;15.50;99.90;;;;;;7374465;19;20626;-80
2023/05/11 11:15:03;;;;;;;2.25;1.60;;;15.50;99.90;;;;;;7382991;19;20127;-77
2023/05/11 11:17:31;;;;;;;3.72;2.38;;;15.60;99.90;;;;;;7391977;19;20164;-79
2023/05/11 11:20:03;;;;;;;3.83;2.00;;;15.70;99.90;;;;;;7380769;19;20249;-80
2023/05/11 11:22:35;;;;;;;1.85;1.45;;;15.80;99.90;;;;;;7390591;19;20135;-78
2023/05/11 11:25:05;;;;;;;2.92;1.73;;;15.90;99.90;;;;;;7388168;19;20200;-79
2023/05/11 11:27:41;;;;;;;3.45;2.00;;;15.60;99.90;;;;;;7376644;19;20150;-79
2023/05/11 11:30:17;;;;;;;1.48;1.38;;;15.40;99.90;;;;;;7385692;19;20134;-81
2023/05/11 11:32:44;;;;;;;2.15;1.42;;;15.40;99.90;;;;;;7391222;19;20136;-81
2023/05/11 11:35:39;;;;;;;3.38;1.70;;;15.50;99.90;;;;;;7392242;19;20146;-81
2023/05/11 11:38:06;;;;;;;1.50;1.40;;;15.60;99.90;;;;;;7389325;19;20153;-82
2023/05/11 11:40:39;;;;;;;1.60;1.38;;;15.60;99.90;;;;;;7393862;19;20138;-81
2023/05/11 11:43:21;;;;;;;2.42;1.52;;;15.60;99.90;;;;;;7376925;19;20190;-81
2023/05/11 11:45:53;;;;;;;3.05;1.48;;;15.70;99.90;;;;;;7380446;19;20142;-79
2023/05/11 11:48:29;;;;;;;3.25;1.40;;;15.60;99.90;;;;;;7388294;19;20165;-79
2023/05/11 11:51:09;;;;;;;1.48;1.08;;;15.50;99.90;;;;;;7384683;19;20142;-79
2023/05/11 11:53:35;;;;;;;3.17;1.50;;;15.50;99.90;;;;;;7391478;19;20154;-79
2023/05/11 11:56:01;;;;;;;2.85;1.00;;;15.50;99.90;;;;;;7386039;19;20146;-80
2023/05/11 11:58:42;;;;;;;1.70;1.23;;;15.80;99.90;;;;;;7371683;19;20141;-79
2023/05/11 12:01:21;;;;;;;1.92;1.27;;;15.80;99.90;;;;;;7373740;19;20149;-82
2023/05/11 12:03:56;;;;;;;2.38;1.65;;;15.90;99.90;;;;;;7392200;19;20325;-81
2023/05/11 12:06:27;;;;;;;1.30;1.20;;;16.00;99.90;;;;;;7390384;19;20558;-81
2023/05/11 12:08:53;;;;;;;2.10;1.50;;;15.90;99.90;;;;;;7389966;19;20131;-80
2023/05/11 12:11:22;;;;;;;1.45;1.25;;;15.90;99.90;;;;;;7383267;19;20131;-79
2023/05/11 12:13:48;;;;;;;1.98;1.50;;;15.90;99.90;;;;;;7387632;19;20591;-79
2023/05/11 12:16:16;;;;;;;1.83;1.58;;;15.90;99.90;;;;;;7374822;19;20213;-80
2023/05/11 12:18:55;;;;;;;2.08;1.30;;;15.90;99.90;;;;;;7370836;19;20640;-79
2023/05/11 12:21:22;;;;;;;1.20;1.10;;;15.90;99.90;;;;;;7369370;19;20163;-79
2023/05/11 12:23:53;;;;;;;3.45;1.20;;;15.90;99.90;;;;;;7371739;19;20150;-80
2023/05/11 12:26:20;;;;;;;2.90;1.58;;;16.00;99.90;;;;;;7368470;19;20157;-78
2023/05/11 12:28:49;;;;;;;3.15;1.20;;;16.00;99.90;;;;;;7388201;19;20198;-79
2023/05/11 12:31:16;;;;;;;1.85;1.13;;;16.10;99.90;;;;;;7388896;19;20150;-79
2023/05/11 12:33:50;;;;;;;1.10;1.00;;;16.10;99.90;;;;;;7388860;19;20134;-80
2023/05/11 12:36:17;;;;;;;1.58;1.15;;;16.00;99.90;;;;;;7385941;19;20135;-79
2023/05/11 12:38:46;;;;;;;1.75;1.50;;;16.00;99.90;;;;;;7378345;19;20595;-79
2023/05/11 12:41:21;;;;;;;2.55;1.70;;;15.90;99.90;;;;;;7370502;19;20484;-79
2023/05/11 12:43:51;;;;;;;2.28;1.80;;;15.80;99.90;;;;;;7386769;19;20157;-78
2023/05/11 12:46:19;;;;;;;1.50;1.20;;;16.00;99.90;;;;;;7388303;19;20138;-80
2023/05/11 12:48:48;;;;;;;1.58;1.08;;;16.00;99.90;;;;;;7379995;19;21339;-81
2023/05/11 12:51:50;;;;;;;1.52;0.95;;;16.10;99.90;;;;;;7359932;19;20150;-79
2023/05/11 12:54:32;;;;;;;1.50;0.90;;;16.10;99.90;;;;;;7361270;19;20138;-79
2023/05/11 12:56:59;;;;;;;2.63;0.95;;;16.00;99.90;;;;;;7359682;19;20784;-79